sensor_id;sensor_type;location;lat;lon;timestamp;temperature;humidity
19252;DHT22;9760;50.944;5.304;2023-04-24T00:00:55;9.80;99.90
19252;DHT22;9760;50.944;5.304;2023-04-24T00:03:26;9.80;99.90
19252;DHT22;9760;50.944;5.304;2023-04-24T00:05:54;9.80;99.90
19252;DHT22;9760;50.944;5.304;2023-04-24T00:08:20;9.70;99.90
19252;DHT22;9760;50.944;5.304;2023-04-24T00:10:45;9.70;99.90
19252;DHT22;9760;50.944;5.304;2023-04-24T00:13:11;9.80;99.90
19252;DHT22;9760;50.944;5.304;2023-04-24T00:15:37;9.80;99.90
19252;DHT22;9760;50.944;5.304;2023-04-24T00:18:02;9.80;99.90
19252;DHT22;9760;50.944;5.304;2023-04-24T00:20:28;9.70;99.90
19252;DHT22;9760;50.944;5.304;2023-04-24T00:22:58;9.80;99.90
19252;DHT22;9760;50.944;5.304;2023-04-24T00:25:24;9.70;99.90
19252;DHT22;9760;50.944;5.304;2023-04-24T00:27:50;9.70;99.90
19252;DHT22;9760;50.944;5.304;2023-04-24T00:30:15;9.90;99.90
19252;DHT22;9760;50.944;5.304;2023-04-24T00:32:41;9.70;99.90
19252;DHT22;9760;50.944;5.304;2023-04-24T00:35:07;9.70;99.90
19252;DHT22;9760;50.944;5.304;2023-04-24T00:37:33;9.70;99.90
19252;DHT22;9760;50.944;5.304;2023-04-24T00:39:58;9.70;99.90
19252;DHT22;9760;50.944;5.304;2023-04-24T00:42:24;9.70;99.90
19252;DHT22;9760;50.944;5.304;2023-04-24T00:44:51;9.70;99.90
19252;DHT22;9760;50.944;5.304;2023-04-24T00:47:16;9.70;99.90
19252;DHT22;9760;50.944;5.304;2023-04-24T00:49:44;9.70;99.90
19252;DHT22;9760;50.944;5.304;2023-04-24T00:52:09;9.70;99.90
19252;DHT22;9760;50.944;5.304;2023-04-24T00:54:36;9.70;99.90
19252;DHT22;9760;50.944;5.304;2023-04-24T00:57:03;9.70;99.90
19252;DHT22;9760;50.944;5.304;2023-04-24T00:59:29;9.70;99.90
19252;DHT22;9760;50.944;5.304;2023-04-24T01:01:55;9.70;99.90
19252;DHT22;9760;50.944;5.304;2023-04-24T01:04:21;9.70;99.90
19252;DHT22;9760;50.944;5.304;2023-04-24T01:06:48;9.80;99.90
19252;DHT22;9760;50.944;5.304;2023-04-24T01:09:15;9.70;99.90
19252;DHT22;9760;50.944;5.304;2023-04-24T01:11:42;9.70;99.90
19252;DHT22;9760;50.944;5.304;2023-04-24T01:14:08;9.70;99.90
19252;DHT22;9760;50.944;5.304;2023-04-24T01:16:35;9.70;99.90
19252;DHT22;9760;50.944;5.304;2023-04-24T01:19:01;9.70;99.90
19252;DHT22;9760;50.944;5.304;2023-04-24T01:21:29;9.70;99.90
19252;DHT22;9760;50.944;5.304;2023-04-24T01:23:55;9.70;99.90
19252;DHT22;9760;50.944;5.304;2023-04-24T01:26:22;9.70;99.90
19252;DHT22;9760;50.944;5.304;2023-04-24T01:28:48;9.70;99.90
19252;DHT22;9760;50.944;5.304;2023-04-24T01:31:15;9.70;99.90
19252;DHT22;9760;50.944;5.304;2023-04-24T01:33:42;9.60;99.90
19252;DHT22;9760;50.944;5.304;2023-04-24T01:36:09;9.60;99.90
19252;DHT22;9760;50.944;5.304;2023-04-24T01:38:35;9.60;99.90
19252;DHT22;9760;50.944;5.304;2023-04-24T01:41:01;9.60;99.90
19252;DHT22;9760;50.944;5.304;2023-04-24T01:43:28;9.60;99.90
19252;DHT22;9760;50.944;5.304;2023-04-24T01:45:53;9.60;99.90
19252;DHT22;9760;50.944;5.304;2023-04-24T01:48:19;9.60;99.90
19252;DHT22;9760;50.944;5.304;2023-04-24T01:50:45;9.70;99.90
19252;DHT22;9760;50.944;5.304;2023-04-24T01:53:10;9.60;99.90
19252;DHT22;9760;50.944;5.304;2023-04-24T01:55:36;9.60;99.90
19252;DHT22;9760;50.944;5.304;2023-04-24T01:58:02;9.60;99.90
19252;DHT22;9760;50.944;5.304;2023-04-24T02:00:28;9.60;99.90
19252;DHT22;9760;50.944;5.304;2023-04-24T02:02:53;9.60;99.90
19252;DHT22;9760;50.944;5.304;2023-04-24T02:05:19;9.60;99.90
19252;DHT22;9760;50.944;5.304;2023-04-24T02:07:45;9.60;99.90
19252;DHT22;9760;50.944;5.304;2023-04-24T02:10:11;9.50;99.90
19252;DHT22;9760;50.944;5.304;2023-04-24T02:12:36;9.40;99.90
19252;DHT22;9760;50.944;5.304;2023-04-24T02:15:02;9.40;99.90
19252;DHT22;9760;50.944;5.304;2023-04-24T02:17:28;9.30;99.90
19252;DHT22;9760;50.944;5.304;2023-04-24T02:19:54;9.20;99.90
19252;DHT22;9760;50.944;5.304;2023-04-24T02:22:19;9.20;99.90
19252;DHT22;9760;50.944;5.304;2023-04-24T02:24:45;9.20;99.90
19252;DHT22;9760;50.944;5.304;2023-04-24T02:27:11;9.20;99.90
19252;DHT22;9760;50.944;5.304;2023-04-24T02:29:37;9.20;99.90
19252;DHT22;9760;50.944;5.304;2023-04-24T02:32:02;9.20;99.90
19252;DHT22;9760;50.944;5.304;2023-04-24T02:34:28;9.20;99.90
19252;DHT22;9760;50.944;5.304;2023-04-24T02:36:54;9.10;99.90
19252;DHT22;9760;50.944;5.304;2023-04-24T02:39:20;9.20;99.90
19252;DHT22;9760;50.944;5.304;2023-04-24T02:41:45;9.10;99.90
19252;DHT22;9760;50.944;5.304;2023-04-24T02:44:11;9.00;99.90
19252;DHT22;9760;50.944;5.304;2023-04-24T02:46:37;8.90;99.90
19252;DHT22;9760;50.944;5.304;2023-04-24T02:49:02;8.90;99.90
19252;DHT22;9760;50.944;5.304;2023-04-24T02:51:28;8.80;99.90
19252;DHT22;9760;50.944;5.304;2023-04-24T02:53:55;8.80;99.90
19252;DHT22;9760;50.944;5.304;2023-04-24T02:56:20;8.80;99.90
19252;DHT22;9760;50.944;5.304;2023-04-24T02:58:46;8.80;99.90
19252;DHT22;9760;50.944;5.304;2023-04-24T03:01:12;8.70;99.90
19252;DHT22;9760;50.944;5.304;2023-04-24T03:03:39;8.70;99.90
19252;DHT22;9760;50.944;5.304;2023-04-24T03:06:05;8.70;99.90
19252;DHT22;9760;50.944;5.304;2023-04-24T03:08:34;8.70;99.90
19252;DHT22;9760;50.944;5.304;2023-04-24T03:11:00;8.60;99.90
19252;DHT22;9760;50.944;5.304;2023-04-24T03:13:26;8.70;99.90
19252;DHT22;9760;50.944;5.304;2023-04-24T03:15:51;8.70;99.90
19252;DHT22;9760;50.944;5.304;2023-04-24T03:18:18;8.70;99.90
19252;DHT22;9760;50.944;5.304;2023-04-24T03:20:46;8.60;99.90
19252;DHT22;9760;50.944;5.304;2023-04-24T03:23:12;8.60;99.90
19252;DHT22;9760;50.944;5.304;2023-04-24T03:25:38;8.70;99.90
19252;DHT22;9760;50.944;5.304;2023-04-24T03:28:04;8.70;99.90
19252;DHT22;9760;50.944;5.304;2023-04-24T03:30:30;8.60;99.90
19252;DHT22;9760;50.944;5.304;2023-04-24T03:32:55;8.60;99.90
19252;DHT22;9760;50.944;5.304;2023-04-24T03:35:21;8.50;99.90
19252;DHT22;9760;50.944;5.304;2023-04-24T03:37:47;8.50;99.90
19252;DHT22;9760;50.944;5.304;2023-04-24T03:40:13;8.40;99.90
19252;DHT22;9760;50.944;5.304;2023-04-24T03:42:38;8.50;99.90
19252;DHT22;9760;50.944;5.304;2023-04-24T03:45:05;8.50;99.90
19252;DHT22;9760;50.944;5.304;2023-04-24T03:47:30;8.50;99.90
19252;DHT22;9760;50.944;5.304;2023-04-24T03:49:56;8.50;99.90
19252;DHT22;9760;50.944;5.304;2023-04-24T03:52:22;8.50;99.90
19252;DHT22;9760;50.944;5.304;2023-04-24T03:54:47;8.50;99.90
19252;DHT22;9760;50.944;5.304;2023-04-24T03:57:13;8.50;99.90
19252;DHT22;9760;50.944;5.304;2023-04-24T03:59:39;8.50;99.90
19252;DHT22;9760;50.944;5.304;2023-04-24T04:02:04;8.50;99.90
19252;DHT22;9760;50.944;5.304;2023-04-24T04:04:30;8.50;99.90
19252;DHT22;9760;50.944;5.304;2023-04-24T04:06:56;8.60;99.90
19252;DHT22;9760;50.944;5.304;2023-04-24T04:09:21;8.60;99.90
19252;DHT22;9760;50.944;5.304;2023-04-24T04:11:47;8.50;99.90
19252;DHT22;9760;50.944;5.304;2023-04-24T04:14:12;8.50;99.90
19252;DHT22;9760;50.944;5.304;2023-04-24T04:16:38;8.50;99.90
19252;DHT22;9760;50.944;5.304;2023-04-24T04:19:04;8.50;99.90
19252;DHT22;9760;50.944;5.304;2023-04-24T04:21:30;8.40;99.90
19252;DHT22;9760;50.944;5.304;2023-04-24T04:23:57;8.30;99.90
19252;DHT22;9760;50.944;5.304;2023-04-24T04:26:23;8.30;99.90
19252;DHT22;9760;50.944;5.304;2023-04-24T04:28:53;8.30;99.90
19252;DHT22;9760;50.944;5.304;2023-04-24T04:31:20;8.20;99.90
19252;DHT22;9760;50.944;5.304;2023-04-24T04:33:46;8.20;99.90
19252;DHT22;9760;50.944;5.304;2023-04-24T04:36:12;8.20;99.90
19252;DHT22;9760;50.944;5.304;2023-04-24T04:38:37;8.20;99.90
19252;DHT22;9760;50.944;5.304;2023-04-24T04:41:03;8.10;99.90
19252;DHT22;9760;50.944;5.304;2023-04-24T04:43:29;8.20;99.90
19252;DHT22;9760;50.944;5.304;2023-04-24T04:45:57;8.10;99.90
19252;DHT22;9760;50.944;5.304;2023-04-24T04:48:22;8.10;99.90
19252;DHT22;9760;50.944;5.304;2023-04-24T04:50:48;8.10;99.90
19252;DHT22;9760;50.944;5.304;2023-04-24T04:53:14;8.10;99.90
19252;DHT22;9760;50.944;5.304;2023-04-24T04:55:39;8.10;99.90
19252;DHT22;9760;50.944;5.304;2023-04-24T04:58:05;8.20;99.90
19252;DHT22;9760;50.944;5.304;2023-04-24T05:00:31;8.10;99.90
19252;DHT22;9760;50.944;5.304;2023-04-24T05:03:01;8.10;99.90
19252;DHT22;9760;50.944;5.304;2023-04-24T05:05:27;8.20;99.90
19252;DHT22;9760;50.944;5.304;2023-04-24T05:07:52;8.10;99.90
19252;DHT22;9760;50.944;5.304;2023-04-24T05:10:18;8.10;99.90
19252;DHT22;9760;50.944;5.304;2023-04-24T05:12:43;8.10;99.90
19252;DHT22;9760;50.944;5.304;2023-04-24T05:15:09;8.20;99.90
19252;DHT22;9760;50.944;5.304;2023-04-24T05:17:35;8.20;99.90
19252;DHT22;9760;50.944;5.304;2023-04-24T05:20:02;8.20;99.90
19252;DHT22;9760;50.944;5.304;2023-04-24T05:22:30;8.20;99.90
19252;DHT22;9760;50.944;5.304;2023-04-24T05:24:56;8.20;99.90
19252;DHT22;9760;50.944;5.304;2023-04-24T05:27:22;8.20;99.90
19252;DHT22;9760;50.944;5.304;2023-04-24T05:29:47;8.20;99.90
19252;DHT22;9760;50.944;5.304;2023-04-24T05:32:13;8.20;99.90
19252;DHT22;9760;50.944;5.304;2023-04-24T05:34:38;8.20;99.90
19252;DHT22;9760;50.944;5.304;2023-04-24T05:37:04;8.20;99.90
19252;DHT22;9760;50.944;5.304;2023-04-24T05:39:34;8.20;99.90
19252;DHT22;9760;50.944;5.304;2023-04-24T05:42:00;8.30;99.90
19252;DHT22;9760;50.944;5.304;2023-04-24T05:44:26;8.20;99.90
19252;DHT22;9760;50.944;5.304;2023-04-24T05:46:52;8.20;99.90
19252;DHT22;9760;50.944;5.304;2023-04-24T05:49:18;8.10;99.90
19252;DHT22;9760;50.944;5.304;2023-04-24T05:51:43;8.10;99.90
19252;DHT22;9760;50.944;5.304;2023-04-24T05:54:09;8.00;99.90
19252;DHT22;9760;50.944;5.304;2023-04-24T05:56:37;8.00;99.90
19252;DHT22;9760;50.944;5.304;2023-04-24T05:59:03;8.00;99.90
19252;DHT22;9760;50.944;5.304;2023-04-24T06:01:29;7.90;99.90
19252;DHT22;9760;50.944;5.304;2023-04-24T06:03:55;7.90;99.90
19252;DHT22;9760;50.944;5.304;2023-04-24T06:06:20;7.90;99.90
19252;DHT22;9760;50.944;5.304;2023-04-24T06:08:46;7.90;99.90
19252;DHT22;9760;50.944;5.304;2023-04-24T06:11:12;7.80;99.90
19252;DHT22;9760;50.944;5.304;2023-04-24T06:13:37;7.90;99.90
19252;DHT22;9760;50.944;5.304;2023-04-24T06:16:03;7.90;99.90
19252;DHT22;9760;50.944;5.304;2023-04-24T06:18:29;7.80;99.90
19252;DHT22;9760;50.944;5.304;2023-04-24T06:20:54;7.80;99.90
19252;DHT22;9760;50.944;5.304;2023-04-24T06:23:20;7.80;99.90
19252;DHT22;9760;50.944;5.304;2023-04-24T06:25:46;7.80;99.90
19252;DHT22;9760;50.944;5.304;2023-04-24T06:28:12;7.80;99.90
19252;DHT22;9760;50.944;5.304;2023-04-24T06:30:38;7.80;99.90
19252;DHT22;9760;50.944;5.304;2023-04-24T06:33:04;7.80;99.90
19252;DHT22;9760;50.944;5.304;2023-04-24T06:35:29;7.70;99.90
19252;DHT22;9760;50.944;5.304;2023-04-24T06:37:55;7.60;99.90
19252;DHT22;9760;50.944;5.304;2023-04-24T06:40:22;7.60;99.90
19252;DHT22;9760;50.944;5.304;2023-04-24T06:42:47;7.60;99.90
19252;DHT22;9760;50.944;5.304;2023-04-24T06:45:13;7.60;99.90
19252;DHT22;9760;50.944;5.304;2023-04-24T06:47:39;7.60;99.90
19252;DHT22;9760;50.944;5.304;2023-04-24T06:50:05;7.50;99.90
19252;DHT22;9760;50.944;5.304;2023-04-24T06:52:31;7.50;99.90
19252;DHT22;9760;50.944;5.304;2023-04-24T06:55:01;7.60;99.90
19252;DHT22;9760;50.944;5.304;2023-04-24T06:57:28;7.60;99.90
19252;DHT22;9760;50.944;5.304;2023-04-24T06:59:55;7.60;99.90
19252;DHT22;9760;50.944;5.304;2023-04-24T07:02:21;7.60;99.90
19252;DHT22;9760;50.944;5.304;2023-04-24T07:04:47;7.60;99.90
19252;DHT22;9760;50.944;5.304;2023-04-24T07:07:15;7.60;99.90
19252;DHT22;9760;50.944;5.304;2023-04-24T07:09:42;7.70;99.90
19252;DHT22;9760;50.944;5.304;2023-04-24T07:12:11;7.70;99.90
19252;DHT22;9760;50.944;5.304;2023-04-24T07:14:37;7.70;99.90
19252;DHT22;9760;50.944;5.304;2023-04-24T07:17:05;7.90;99.90
19252;DHT22;9760;50.944;5.304;2023-04-24T07:19:35;7.90;99.90
19252;DHT22;9760;50.944;5.304;2023-04-24T07:22:01;7.90;99.90
19252;DHT22;9760;50.944;5.304;2023-04-24T07:24:26;7.90;99.90
19252;DHT22;9760;50.944;5.304;2023-04-24T07:26:53;7.90;99.90
19252;DHT22;9760;50.944;5.304;2023-04-24T07:29:19;8.00;99.90
19252;DHT22;9760;50.944;5.304;2023-04-24T07:31:45;8.00;99.90
19252;DHT22;9760;50.944;5.304;2023-04-24T07:34:11;8.10;99.90
19252;DHT22;9760;50.944;5.304;2023-04-24T07:36:36;8.00;99.90
19252;DHT22;9760;50.944;5.304;2023-04-24T07:39:07;8.00;99.90
19252;DHT22;9760;50.944;5.304;2023-04-24T07:41:33;8.10;99.90
19252;DHT22;9760;50.944;5.304;2023-04-24T07:43:59;8.10;99.90
19252;DHT22;9760;50.944;5.304;2023-04-24T07:46:25;8.10;99.90
19252;DHT22;9760;50.944;5.304;2023-04-24T07:48:50;8.10;99.90
19252;DHT22;9760;50.944;5.304;2023-04-24T07:51:16;8.20;99.90
19252;DHT22;9760;50.944;5.304;2023-04-24T07:53:42;8.10;99.90
19252;DHT22;9760;50.944;5.304;2023-04-24T07:56:08;8.00;99.90
19252;DHT22;9760;50.944;5.304;2023-04-24T07:58:35;8.00;99.90
19252;DHT22;9760;50.944;5.304;2023-04-24T08:01:00;8.00;99.90
19252;DHT22;9760;50.944;5.304;2023-04-24T08:03:26;8.00;99.90
19252;DHT22;9760;50.944;5.304;2023-04-24T08:05:52;8.00;99.90
19252;DHT22;9760;50.944;5.304;2023-04-24T08:08:19;8.00;99.90
19252;DHT22;9760;50.944;5.304;2023-04-24T08:10:45;8.00;99.90
19252;DHT22;9760;50.944;5.304;2023-04-24T08:13:11;8.00;99.90
19252;DHT22;9760;50.944;5.304;2023-04-24T08:15:37;8.00;99.90
19252;DHT22;9760;50.944;5.304;2023-04-24T08:18:02;8.00;99.90
19252;DHT22;9760;50.944;5.304;2023-04-24T08:20:28;8.10;99.90
19252;DHT22;9760;50.944;5.304;2023-04-24T08:22:54;8.10;99.90
19252;DHT22;9760;50.944;5.304;2023-04-24T08:25:20;8.20;99.90
19252;DHT22;9760;50.944;5.304;2023-04-24T08:27:48;8.30;99.90
19252;DHT22;9760;50.944;5.304;2023-04-24T08:30:14;8.40;99.90
19252;DHT22;9760;50.944;5.304;2023-04-24T08:32:40;8.40;99.90
19252;DHT22;9760;50.944;5.304;2023-04-24T08:35:06;8.60;99.90
19252;DHT22;9760;50.944;5.304;2023-04-24T08:37:34;8.50;99.90
19252;DHT22;9760;50.944;5.304;2023-04-24T08:40:00;8.70;99.90
19252;DHT22;9760;50.944;5.304;2023-04-24T08:42:28;8.70;99.90
19252;DHT22;9760;50.944;5.304;2023-04-24T08:44:57;8.80;99.90
19252;DHT22;9760;50.944;5.304;2023-04-24T08:47:23;8.80;99.90
19252;DHT22;9760;50.944;5.304;2023-04-24T08:49:50;9.00;99.90
19252;DHT22;9760;50.944;5.304;2023-04-24T08:52:16;9.10;99.90
19252;DHT22;9760;50.944;5.304;2023-04-24T08:54:43;9.20;99.90
19252;DHT22;9760;50.944;5.304;2023-04-24T08:57:11;9.20;99.90
19252;DHT22;9760;50.944;5.304;2023-04-24T08:59:38;9.20;99.90
19252;DHT22;9760;50.944;5.304;2023-04-24T09:02:05;9.10;99.90
19252;DHT22;9760;50.944;5.304;2023-04-24T09:04:33;9.10;99.90
19252;DHT22;9760;50.944;5.304;2023-04-24T09:07:00;9.00;99.90
19252;DHT22;9760;50.944;5.304;2023-04-24T09:09:30;8.80;99.90
19252;DHT22;9760;50.944;5.304;2023-04-24T09:11:57;8.70;99.90
19252;DHT22;9760;50.944;5.304;2023-04-24T09:14:23;8.60;99.90
19252;DHT22;9760;50.944;5.304;2023-04-24T09:16:50;8.50;99.90
19252;DHT22;9760;50.944;5.304;2023-04-24T09:19:16;8.50;99.90
19252;DHT22;9760;50.944;5.304;2023-04-24T09:21:45;8.50;99.90
19252;DHT22;9760;50.944;5.304;2023-04-24T09:24:19;8.50;99.90
19252;DHT22;9760;50.944;5.304;2023-04-24T09:26:48;8.50;99.90
19252;DHT22;9760;50.944;5.304;2023-04-24T09:29:15;8.70;99.90
19252;DHT22;9760;50.944;5.304;2023-04-24T09:31:42;8.90;99.90
19252;DHT22;9760;50.944;5.304;2023-04-24T09:34:08;8.90;99.90
19252;DHT22;9760;50.944;5.304;2023-04-24T09:36:39;9.00;99.90
19252;DHT22;9760;50.944;5.304;2023-04-24T09:39:08;9.20;99.90
19252;DHT22;9760;50.944;5.304;2023-04-24T09:41:49;9.30;99.90
19252;DHT22;9760;50.944;5.304;2023-04-24T09:44:22;9.70;99.90
19252;DHT22;9760;50.944;5.304;2023-04-24T09:46:56;10.00;99.90
19252;DHT22;9760;50.944;5.304;2023-04-24T09:49:25;10.10;99.90
19252;DHT22;9760;50.944;5.304;2023-04-24T09:51:51;10.20;99.90
19252;DHT22;9760;50.944;5.304;2023-04-24T09:54:19;10.30;99.90
19252;DHT22;9760;50.944;5.304;2023-04-24T09:56:50;10.40;99.90
19252;DHT22;9760;50.944;5.304;2023-04-24T09:59:18;10.40;99.90
19252;DHT22;9760;50.944;5.304;2023-04-24T10:01:45;10.50;99.90
19252;DHT22;9760;50.944;5.304;2023-04-24T10:04:18;10.50;99.90
19252;DHT22;9760;50.944;5.304;2023-04-24T10:06:45;10.60;99.90
19252;DHT22;9760;50.944;5.304;2023-04-24T10:09:11;10.60;99.90
19252;DHT22;9760;50.944;5.304;2023-04-24T10:11:42;10.60;99.90
19252;DHT22;9760;50.944;5.304;2023-04-24T10:14:10;10.70;99.90
19252;DHT22;9760;50.944;5.304;2023-04-24T10:16:39;10.80;99.90
19252;DHT22;9760;50.944;5.304;2023-04-24T10:19:06;10.70;99.90
19252;DHT22;9760;50.944;5.304;2023-04-24T10:21:33;10.70;99.90
19252;DHT22;9760;50.944;5.304;2023-04-24T10:23:59;10.60;99.90
19252;DHT22;9760;50.944;5.304;2023-04-24T10:26:29;10.40;99.90
19252;DHT22;9760;50.944;5.304;2023-04-24T10:28:57;10.40;99.90
19252;DHT22;9760;50.944;5.304;2023-04-24T10:31:24;10.50;99.90
19252;DHT22;9760;50.944;5.304;2023-04-24T10:33:51;10.70;99.90
19252;DHT22;9760;50.944;5.304;2023-04-24T10:36:18;10.80;99.90
19252;DHT22;9760;50.944;5.304;2023-04-24T10:38:46;11.00;99.90
19252;DHT22;9760;50.944;5.304;2023-04-24T10:41:13;11.20;99.90
19252;DHT22;9760;50.944;5.304;2023-04-24T10:43:45;11.40;99.90
19252;DHT22;9760;50.944;5.304;2023-04-24T10:46:18;11.30;99.90
19252;DHT22;9760;50.944;5.304;2023-04-24T10:48:52;11.20;99.90
19252;DHT22;9760;50.944;5.304;2023-04-24T10:51:22;11.10;99.90
19252;DHT22;9760;50.944;5.304;2023-04-24T10:53:52;11.00;99.90
19252;DHT22;9760;50.944;5.304;2023-04-24T10:56:18;10.80;99.90
19252;DHT22;9760;50.944;5.304;2023-04-24T10:58:51;10.60;99.90
19252;DHT22;9760;50.944;5.304;2023-04-24T11:01:31;10.60;99.90
19252;DHT22;9760;50.944;5.304;2023-04-24T11:03:59;10.50;99.90
19252;DHT22;9760;50.944;5.304;2023-04-24T11:09:02;10.50;99.90
19252;DHT22;9760;50.944;5.304;2023-04-24T11:11:29;10.50;99.90
19252;DHT22;9760;50.944;5.304;2023-04-24T11:16:28;10.40;99.90
19252;DHT22;9760;50.944;5.304;2023-04-24T11:21:46;10.40;99.90
19252;DHT22;9760;50.944;5.304;2023-04-24T11:24:25;10.30;99.90
19252;DHT22;9760;50.944;5.304;2023-04-24T11:26:55;10.50;99.90
19252;DHT22;9760;50.944;5.304;2023-04-24T11:29:22;10.60;99.90
19252;DHT22;9760;50.944;5.304;2023-04-24T11:31:49;10.90;99.90
19252;DHT22;9760;50.944;5.304;2023-04-24T11:34:17;11.10;99.90
19252;DHT22;9760;50.944;5.304;2023-04-24T11:36:44;11.10;99.90
19252;DHT22;9760;50.944;5.304;2023-04-24T11:39:11;11.20;99.90
19252;DHT22;9760;50.944;5.304;2023-04-24T11:41:37;11.40;99.90
19252;DHT22;9760;50.944;5.304;2023-04-24T11:44:03;11.60;99.90
19252;DHT22;9760;50.944;5.304;2023-04-24T11:46:31;11.80;99.90
19252;DHT22;9760;50.944;5.304;2023-04-24T11:48:58;11.80;99.90
19252;DHT22;9760;50.944;5.304;2023-04-24T11:51:25;11.60;99.90
19252;DHT22;9760;50.944;5.304;2023-04-24T11:53:55;11.60;99.90
19252;DHT22;9760;50.944;5.304;2023-04-24T11:56:22;11.30;99.90
19252;DHT22;9760;50.944;5.304;2023-04-24T11:58:48;11.40;99.90
19252;DHT22;9760;50.944;5.304;2023-04-24T12:01:14;11.40;99.90
19252;DHT22;9760;50.944;5.304;2023-04-24T12:03:40;11.40;99.90
19252;DHT22;9760;50.944;5.304;2023-04-24T12:06:10;11.50;99.90
19252;DHT22;9760;50.944;5.304;2023-04-24T12:08:37;11.40;99.90
19252;DHT22;9760;50.944;5.304;2023-04-24T12:11:04;11.50;99.90
19252;DHT22;9760;50.944;5.304;2023-04-24T12:13:33;11.70;99.90
19252;DHT22;9760;50.944;5.304;2023-04-24T12:15:59;11.90;99.90
19252;DHT22;9760;50.944;5.304;2023-04-24T12:18:25;11.90;99.90
19252;DHT22;9760;50.944;5.304;2023-04-24T12:20:51;11.70;99.90
19252;DHT22;9760;50.944;5.304;2023-04-24T12:23:33;11.70;99.90
19252;DHT22;9760;50.944;5.304;2023-04-24T12:26:00;11.90;99.90
19252;DHT22;9760;50.944;5.304;2023-04-24T12:28:35;12.10;99.90
19252;DHT22;9760;50.944;5.304;2023-04-24T12:31:01;12.00;99.90
19252;DHT22;9760;50.944;5.304;2023-04-24T12:33:27;11.90;99.90
19252;DHT22;9760;50.944;5.304;2023-04-24T12:35:53;11.80;99.90
19252;DHT22;9760;50.944;5.304;2023-04-24T12:38:22;11.70;99.90
19252;DHT22;9760;50.944;5.304;2023-04-24T12:41:02;11.70;99.90
19252;DHT22;9760;50.944;5.304;2023-04-24T12:43:29;11.90;99.90
19252;DHT22;9760;50.944;5.304;2023-04-24T12:45:55;12.10;99.90
19252;DHT22;9760;50.944;5.304;2023-04-24T12:48:20;12.20;99.90
19252;DHT22;9760;50.944;5.304;2023-04-24T12:50:47;12.10;99.90
19252;DHT22;9760;50.944;5.304;2023-04-24T12:53:13;12.10;99.90
19252;DHT22;9760;50.944;5.304;2023-04-24T12:55:39;12.00;99.90
19252;DHT22;9760;50.944;5.304;2023-04-24T12:58:05;11.80;99.90
19252;DHT22;9760;50.944;5.304;2023-04-24T13:00:31;11.80;99.90
19252;DHT22;9760;50.944;5.304;2023-04-24T13:02:57;11.80;99.90
19252;DHT22;9760;50.944;5.304;2023-04-24T13:05:22;12.00;99.90
19252;DHT22;9760;50.944;5.304;2023-04-24T13:07:48;12.40;99.90
19252;DHT22;9760;50.944;5.304;2023-04-24T13:10:14;12.50;99.90
19252;DHT22;9760;50.944;5.304;2023-04-24T13:12:39;12.40;99.90
19252;DHT22;9760;50.944;5.304;2023-04-24T13:15:06;12.30;99.90
19252;DHT22;9760;50.944;5.304;2023-04-24T13:17:32;12.40;99.90
19252;DHT22;9760;50.944;5.304;2023-04-24T13:19:58;12.60;99.90
19252;DHT22;9760;50.944;5.304;2023-04-24T13:22:24;12.80;99.90
19252;DHT22;9760;50.944;5.304;2023-04-24T13:24:50;13.00;99.90
19252;DHT22;9760;50.944;5.304;2023-04-24T13:27:16;12.80;99.90
19252;DHT22;9760;50.944;5.304;2023-04-24T13:29:42;12.50;99.90
19252;DHT22;9760;50.944;5.304;2023-04-24T13:32:09;12.40;99.90
19252;DHT22;9760;50.944;5.304;2023-04-24T13:34:34;12.50;99.90
19252;DHT22;9760;50.944;5.304;2023-04-24T13:37:01;12.80;99.90
19252;DHT22;9760;50.944;5.304;2023-04-24T13:39:27;12.80;99.90
19252;DHT22;9760;50.944;5.304;2023-04-24T13:41:53;12.70;99.90
19252;DHT22;9760;50.944;5.304;2023-04-24T13:44:20;12.60;99.90
19252;DHT22;9760;50.944;5.304;2023-04-24T13:46:47;12.60;99.90
19252;DHT22;9760;50.944;5.304;2023-04-24T13:49:14;12.70;99.90
19252;DHT22;9760;50.944;5.304;2023-04-24T13:51:41;12.50;99.90
19252;DHT22;9760;50.944;5.304;2023-04-24T13:54:07;12.60;99.90
19252;DHT22;9760;50.944;5.304;2023-04-24T13:56:32;12.70;99.90
19252;DHT22;9760;50.944;5.304;2023-04-24T13:58:58;12.90;99.90
19252;DHT22;9760;50.944;5.304;2023-04-24T14:01:24;13.00;99.90
19252;DHT22;9760;50.944;5.304;2023-04-24T14:03:54;13.20;99.90
19252;DHT22;9760;50.944;5.304;2023-04-24T14:06:20;13.20;99.90
19252;DHT22;9760;50.944;5.304;2023-04-24T14:08:47;12.90;99.90
19252;DHT22;9760;50.944;5.304;2023-04-24T14:11:13;12.70;99.90
19252;DHT22;9760;50.944;5.304;2023-04-24T14:13:39;12.90;99.90
19252;DHT22;9760;50.944;5.304;2023-04-24T14:16:06;13.30;99.90
19252;DHT22;9760;50.944;5.304;2023-04-24T14:18:31;13.40;99.90
19252;DHT22;9760;50.944;5.304;2023-04-24T14:20:57;13.20;99.90
19252;DHT22;9760;50.944;5.304;2023-04-24T14:23:23;12.90;99.90
19252;DHT22;9760;50.944;5.304;2023-04-24T14:25:49;12.90;99.90
19252;DHT22;9760;50.944;5.304;2023-04-24T14:28:18;12.90;99.90
19252;DHT22;9760;50.944;5.304;2023-04-24T14:30:46;12.90;99.90
19252;DHT22;9760;50.944;5.304;2023-04-24T14:33:11;13.00;99.90
19252;DHT22;9760;50.944;5.304;2023-04-24T14:35:38;13.00;99.90
19252;DHT22;9760;50.944;5.304;2023-04-24T14:38:04;12.90;99.90
19252;DHT22;9760;50.944;5.304;2023-04-24T14:40:30;12.80;99.90
19252;DHT22;9760;50.944;5.304;2023-04-24T14:42:56;12.90;99.90
19252;DHT22;9760;50.944;5.304;2023-04-24T14:45:24;13.10;99.90
19252;DHT22;9760;50.944;5.304;2023-04-24T14:47:50;13.30;99.90
19252;DHT22;9760;50.944;5.304;2023-04-24T14:50:15;13.20;99.90
19252;DHT22;9760;50.944;5.304;2023-04-24T14:52:41;13.20;99.90
19252;DHT22;9760;50.944;5.304;2023-04-24T14:55:07;13.40;99.90
19252;DHT22;9760;50.944;5.304;2023-04-24T14:57:33;13.20;99.90
19252;DHT22;9760;50.944;5.304;2023-04-24T14:59:59;13.20;99.90
19252;DHT22;9760;50.944;5.304;2023-04-24T15:02:25;13.20;99.90
19252;DHT22;9760;50.944;5.304;2023-04-24T15:04:51;13.20;99.90
19252;DHT22;9760;50.944;5.304;2023-04-24T15:07:17;13.30;99.90
19252;DHT22;9760;50.944;5.304;2023-04-24T15:09:42;13.30;99.90
19252;DHT22;9760;50.944;5.304;2023-04-24T15:12:08;13.30;99.90
19252;DHT22;9760;50.944;5.304;2023-04-24T15:14:35;13.50;99.90
19252;DHT22;9760;50.944;5.304;2023-04-24T15:17:01;13.30;99.90
19252;DHT22;9760;50.944;5.304;2023-04-24T15:19:26;13.20;99.90
19252;DHT22;9760;50.944;5.304;2023-04-24T15:21:52;13.10;99.90
19252;DHT22;9760;50.944;5.304;2023-04-24T15:24:17;13.30;99.90
19252;DHT22;9760;50.944;5.304;2023-04-24T15:26:43;13.40;99.90
19252;DHT22;9760;50.944;5.304;2023-04-24T15:29:09;13.40;99.90
19252;DHT22;9760;50.944;5.304;2023-04-24T15:31:34;13.40;99.90
19252;DHT22;9760;50.944;5.304;2023-04-24T15:34:04;13.30;99.90
19252;DHT22;9760;50.944;5.304;2023-04-24T15:36:31;13.10;99.90
19252;DHT22;9760;50.944;5.304;2023-04-24T15:38:56;12.90;99.90
19252;DHT22;9760;50.944;5.304;2023-04-24T15:41:22;12.70;99.90
19252;DHT22;9760;50.944;5.304;2023-04-24T15:43:48;12.60;99.90
19252;DHT22;9760;50.944;5.304;2023-04-24T15:46:13;12.50;99.90
19252;DHT22;9760;50.944;5.304;2023-04-24T15:48:39;12.40;99.90
19252;DHT22;9760;50.944;5.304;2023-04-24T15:51:06;12.30;99.90
19252;DHT22;9760;50.944;5.304;2023-04-24T15:53:32;12.30;99.90
19252;DHT22;9760;50.944;5.304;2023-04-24T15:55:58;12.20;99.90
19252;DHT22;9760;50.944;5.304;2023-04-24T15:58:24;12.30;99.90